Pagrindinis puslapis
METAR-TAF:

METAR-TAF

Oro uostai :

Poris, Suomija

platuma: 61-28N, ilguma: 021-48E, Aukštis: 13 m

Dabartinis oras

Ataskaita buvo paskelbta 30 minutes, ne 12:50 UTC
Vėjas 7 kt iš Šiaurės, svyruoja nuo Šiaurės/Šiaurės Vakarų ir Šiaurės Rytų
Temperatūra -2°C
Drėgmė 74%
Slėgis 1011 hPa
Matomumas: 6000 m
Apsiniaukę ne aukštis 3100 ft
sniegas,

METAR: EFPO 201250Z AUTO 36007KT 340V050 6000 -SHSN OVC031 M02/M06 Q1011 REFZRA

Laikas: 16:20 (13:20 UTC)

Prognozė

Ataskaita buvo paskelbta 22 valandos ir 45 minutes, ne 14:35 UTC
Prognozė galioja nuo 19 metu 15 UTC su 19 metu 18 UTC
Vėjas 10 kt iš Šiaurės Rytų
Matomumas 10 km arba daugiau
Su prošvaistėmis ne aukštis 4500 ft

TAF: EFPO 191435Z 1915/1918 05010KT 9999 BKN045

Orai ataskaitas ir orų prognozės (METAR, TAF).

turimą stotys yra geltonos ir raudonos taškus žemėlapyje.

Perkelti pele per norėdami pamatyti stoties vardą.

Tada spustelėkite, norėdami matyti oro stebėjimo ir prognozės.

Norėdami pakeisti žemėlapį: spustelėkite ant žalios mygtukų su juodo kryžiaus žemyn,; žalią mygtuką su brūkšneliu, jei norite nutolinti; arba žalių rodyklių gretimoms žemėlapius.


METAR-TAF: